Time;durP1;ratioP1;P1;durP2;ratioP2;P2;SDS_P1;SDS_P2;PMS_P1;PMS_P2;Temp;Humidity;BMP_temperature;BMP_pressure;BME280_temperature;BME280_humidity;BME280_pressure;Samples;Min_cycle;Max_cycle;Signal;HPM_P1;HPM_P2
2022/04/05 00:00:28;;;;;;;2.40;2.15;;;;;;;;;;4920581;29;20035;-65
2022/04/05 00:02:55;;;;;;;2.55;2.35;;;;;;;;;;4936409;29;20047;-66
2022/04/05 00:05:20;;;;;;;5.68;5.03;;;;;;;;;;4937566;29;20028;-65
2022/04/05 00:07:46;;;;;;;4.28;3.85;;;;;;;;;;4936254;29;20043;-65
2022/04/05 00:10:11;;;;;;;4.45;2.95;;;;;;;;;;4937200;29;20032;-66
2022/04/05 00:12:37;;;;;;;4.13;3.78;;;;;;;;;;4937424;29;20502;-65
2022/04/05 00:15:05;;;;;;;0.95;0.88;;;;;;;;;;4936142;29;20030;-65
2022/04/05 00:17:30;;;;;;;4.47;4.07;;;;;;;;;;4936013;29;20016;-65
2022/04/05 00:19:56;;;;;;;5.40;4.90;;;;;;;;;;4936719;29;20035;-65
2022/04/05 00:22:21;;;;;;;4.03;3.65;;;;;;;;;;4937248;29;20468;-64
2022/04/05 00:24:47;;;;;;;3.25;2.28;;;;;;;;;;4940874;29;20086;-65
2022/04/05 00:27:12;;;;;;;4.82;4.45;;;;;;;;;;4956377;29;20035;-64
2022/04/05 00:29:38;;;;;;;1.45;1.35;;;;;;;;;;4938915;29;20035;-65
2022/04/05 00:32:03;;;;;;;4.70;4.13;;;;;;;;;;4956230;29;20109;-65
2022/04/05 00:34:29;;;;;;;4.03;3.67;;;;;;;;;;4956177;29;20512;-65
2022/04/05 00:36:54;;;;;;;5.53;5.03;;;;;;;;;;4938807;29;20039;-65
2022/04/05 00:39:22;;;;;;;1.40;1.33;;;;;;;;;;4956098;29;20054;-66
2022/04/05 00:41:48;;;;;;;5.28;4.78;;;;;;;;;;4938849;29;20034;-65
2022/04/05 00:44:14;;;;;;;4.50;4.07;;;;;;;;;;4956091;29;20472;-65
2022/04/05 00:46:39;;;;;;;4.03;3.60;;;;;;;;;;4955904;29;20024;-65
2022/04/05 00:49:04;;;;;;;3.25;3.03;;;;;;;;;;4955847;29;20035;-65
2022/04/05 00:51:30;;;;;;;4.40;4.10;;;;;;;;;;4938831;29;20483;-65
2022/04/05 00:53:57;;;;;;;4.10;3.80;;;;;;;;;;4955963;29;20141;-65
2022/04/05 00:56:24;;;;;;;2.22;2.08;;;;;;;;;;4955747;29;20079;-65
2022/04/05 00:58:52;;;;;;;5.07;4.65;;;;;;;;;;4955679;29;20475;-66
2022/04/05 01:01:19;;;;;;;3.30;3.00;;;;;;;;;;4955713;29;20106;-65
2022/04/05 01:03:48;;;;;;;2.97;2.78;;;;;;;;;;4955653;29;20402;-65
2022/04/05 01:06:17;;;;;;;3.38;3.10;;;;;;;;;;4955171;29;20464;-66
2022/04/05 01:08:44;;;;;;;2.45;2.30;;;;;;;;;;4955622;29;20031;-65
2022/04/05 01:11:09;;;;;;;1.48;1.17;;;;;;;;;;4938291;29;20395;-65
2022/04/05 01:13:34;;;;;;;2.95;2.78;;;;;;;;;;4955486;29;20027;-65
2022/04/05 01:16:00;;;;;;;4.68;4.30;;;;;;;;;;4955419;29;20110;-64
2022/04/05 01:18:25;;;;;;;4.55;4.20;;;;;;;;;;4955259;29;20042;-64
2022/04/05 01:20:51;;;;;;;4.35;3.95;;;;;;;;;;4955356;29;20448;-66
2022/04/05 01:23:20;;;;;;;3.90;3.55;;;;;;;;;;4955301;29;20034;-66
2022/04/05 01:25:46;;;;;;;2.25;2.08;;;;;;;;;;4934519;29;20059;-74
2022/04/05 01:28:11;;;;;;;3.00;2.80;;;;;;;;;;4936046;29;20027;-74
2022/04/05 01:30:37;;;;;;;5.75;4.65;;;;;;;;;;4934132;29;20062;-75
2022/04/05 01:33:02;;;;;;;4.55;4.18;;;;;;;;;;4935737;29;20038;-75
2022/04/05 01:35:28;;;;;;;2.83;2.53;;;;;;;;;;4934694;29;20087;-75
2022/04/05 01:37:53;;;;;;;3.25;3.05;;;;;;;;;;4934659;29;20036;-75
2022/04/05 01:40:18;;;;;;;2.95;2.75;;;;;;;;;;4935996;29;20026;-74
2022/04/05 01:42:44;;;;;;;1.00;1.00;;;;;;;;;;4934768;29;20047;-75
2022/04/05 01:45:09;;;;;;;3.55;3.25;;;;;;;;;;4936005;29;20024;-75
2022/04/05 01:47:37;;;;;;;1.58;1.48;;;;;;;;;;4934818;29;20055;-74
2022/04/05 01:50:02;;;;;;;4.50;4.10;;;;;;;;;;4935972;29;20544;-75
2022/04/05 01:52:28;;;;;;;2.58;2.42;;;;;;;;;;4935978;29;20115;-74
2022/04/05 01:54:53;;;;;;;1.85;1.75;;;;;;;;;;4935821;29;20024;-74
2022/04/05 01:57:19;;;;;;;4.38;4.03;;;;;;;;;;4934434;29;20027;-74
2022/04/05 01:59:44;;;;;;;2.45;2.30;;;;;;;;;;4934438;29;20083;-74
2022/04/05 02:02:10;;;;;;;4.03;3.63;;;;;;;;;;4918712;29;20036;-74
2022/04/05 02:04:36;;;;;;;3.55;3.28;;;;;;;;;;4935696;29;20020;-74
2022/04/05 02:07:08;;;;;;;1.38;1.27;;;;;;;;;;4935796;29;20024;-74
2022/04/05 02:09:35;;;;;;;3.63;3.33;;;;;;;;;;4935736;29;20091;-75
2022/04/05 02:12:00;;;;;;;1.48;1.38;;;;;;;;;;4934292;29;20070;-74
2022/04/05 02:14:50;;;;;;;1.48;1.40;;;;;;;;;;4935817;29;20090;-74
2022/04/05 02:17:22;;;;;;;1.08;1.08;;;;;;;;;;4935670;29;20028;-74
2022/04/05 02:19:50;;;;;;;4.50;4.18;;;;;;;;;;4934501;29;20055;-74
2022/04/05 02:22:18;;;;;;;4.05;3.83;;;;;;;;;;4934446;29;20019;-74
2022/04/05 02:24:45;;;;;;;1.27;1.27;;;;;;;;;;4939032;29;20050;-74
2022/04/05 02:27:11;;;;;;;2.28;2.15;;;;;;;;;;4937446;29;20042;-74
2022/04/05 02:29:37;;;;;;;3.90;3.65;;;;;;;;;;4937559;29;20118;-74
2022/04/05 02:32:11;;;;;;;3.15;2.90;;;;;;;;;;4937353;29;20023;-74
2022/04/05 02:34:38;;;;;;;3.65;3.35;;;;;;;;;;4937371;29;20035;-74
2022/04/05 02:37:05;;;;;;;4.20;3.90;;;;;;;;;;4921587;29;20045;-74
2022/04/05 02:39:34;;;;;;;4.18;3.78;;;;;;;;;;4937233;29;20031;-74
2022/04/05 02:42:02;;;;;;;3.60;3.30;;;;;;;;;;4937817;29;20027;-74
2022/04/05 02:44:30;;;;;;;2.83;2.63;;;;;;;;;;4941009;29;20114;-74
2022/04/05 02:47:00;;;;;;;2.85;1.95;;;;;;;;;;4940887;29;20023;-76
2022/04/05 02:49:29;;;;;;;3.75;3.53;;;;;;;;;;4925548;29;20035;-76
2022/04/05 02:51:55;;;;;;;3.97;3.67;;;;;;;;;;4940648;29;20023;-75
2022/04/05 02:54:28;;;;;;;4.47;4.13;;;;;;;;;;4940866;29;20031;-75
2022/04/05 02:56:56;;;;;;;3.25;2.95;;;;;;;;;;4940680;29;20042;-76
2022/04/05 02:59:23;;;;;;;4.15;3.85;;;;;;;;;;4940518;29;20015;-75
2022/04/05 03:01:50;;;;;;;3.78;3.47;;;;;;;;;;4940607;29;20395;-75
2022/04/05 03:04:18;;;;;;;3.67;3.42;;;;;;;;;;4940621;29;20027;-73
2022/04/05 03:06:44;;;;;;;3.85;3.55;;;;;;;;;;4940647;29;20059;-74
2022/04/05 03:09:12;;;;;;;4.22;3.92;;;;;;;;;;4940620;29;20110;-74
2022/04/05 03:11:38;;;;;;;3.03;2.83;;;;;;;;;;4940400;29;20475;-73
2022/04/05 03:14:04;;;;;;;4.03;3.67;;;;;;;;;;4940394;29;20114;-74
2022/04/05 03:16:30;;;;;;;3.85;3.45;;;;;;;;;;4940277;29;20030;-74
2022/04/05 03:18:59;;;;;;;1.98;1.85;;;;;;;;;;4940168;29;20456;-74
2022/04/05 03:21:26;;;;;;;3.05;2.85;;;;;;;;;;4940257;29;20032;-75
2022/04/05 03:23:51;;;;;;;4.10;3.80;;;;;;;;;;4940378;29;20026;-75
2022/04/05 03:26:17;;;;;;;1.73;1.65;;;;;;;;;;4940236;29;20058;-75
2022/04/05 03:28:46;;;;;;;4.38;4.05;;;;;;;;;;4940236;29;20403;-75
2022/04/05 03:31:13;;;;;;;3.30;3.05;;;;;;;;;;4939994;29;20035;-75
2022/04/05 03:33:38;;;;;;;4.93;4.47;;;;;;;;;;4940003;29;20027;-75
2022/04/05 03:36:07;;;;;;;4.35;3.97;;;;;;;;;;4940179;29;20506;-75
2022/04/05 03:38:32;;;;;;;3.63;3.33;;;;;;;;;;4939911;29;20024;-75
2022/04/05 03:40:59;;;;;;;3.15;2.92;;;;;;;;;;4957270;29;20027;-75
2022/04/05 03:43:25;;;;;;;4.10;3.70;;;;;;;;;;4939910;29;20117;-75
2022/04/05 03:45:54;;;;;;;3.20;2.92;;;;;;;;;;4939456;29;20094;-75
2022/04/05 03:48:21;;;;;;;4.20;3.85;;;;;;;;;;4939953;29;20031;-75
2022/04/05 03:50:48;;;;;;;3.88;3.58;;;;;;;;;;4939876;29;20038;-73
2022/04/05 03:53:14;;;;;;;4.60;4.20;;;;;;;;;;4939758;28;20019;-73
2022/04/05 03:55:42;;;;;;;3.85;3.55;;;;;;;;;;4939051;29;20046;-73
2022/04/05 03:58:12;;;;;;;3.42;3.17;;;;;;;;;;4939567;29;20023;-73
2022/04/05 04:00:39;;;;;;;4.75;4.13;;;;;;;;;;4956871;29;20039;-73
2022/04/05 04:03:12;;;;;;;1.50;1.40;;;;;;;;;;4939655;29;20114;-73
2022/04/05 04:05:38;;;;;;;4.45;4.07;;;;;;;;;;4939510;29;20114;-74
2022/04/05 04:08:05;;;;;;;5.22;4.70;;;;;;;;;;4939400;29;20031;-74
2022/04/05 04:10:33;;;;;;;4.20;3.90;;;;;;;;;;4939822;29;20038;-74
2022/04/05 04:13:01;;;;;;;3.92;3.60;;;;;;;;;;4939779;29;20078;-74
2022/04/05 04:15:32;;;;;;;4.28;3.88;;;;;;;;;;4939890;29;20117;-74
2022/04/05 04:17:59;;;;;;;4.70;4.20;;;;;;;;;;4943534;28;20038;-65
2022/04/05 04:20:25;;;;;;;3.90;3.55;;;;;;;;;;4938767;29;20395;-65
2022/04/05 04:22:51;;;;;;;4.32;3.97;;;;;;;;;;4937584;29;20122;-65
2022/04/05 04:25:18;;;;;;;5.65;4.00;;;;;;;;;;4934492;29;20111;-64
2022/04/05 04:27:43;;;;;;;3.83;3.53;;;;;;;;;;4919886;29;20020;-65
2022/04/05 04:34:09;;;;;;;3.42;3.13;;;;;;;;;;4937835;29;20066;-65
2022/04/05 04:43:45;;;;;;;2.40;2.22;;;;;;;;;;4937647;29;20035;-66
2022/04/05 04:49:46;;;;;;;4.25;3.90;;;;;;;;;;4937543;29;20034;-66
2022/04/05 04:55:48;;;;;;;4.63;4.32;;;;;;;;;;4937399;29;20487;-66
2022/04/05 05:01:48;;;;;;;3.85;3.33;;;;;;;;;;4937044;29;20110;-66
2022/04/05 05:07:49;;;;;;;2.90;2.70;;;;;;;;;;4936935;29;20114;-66
2022/04/05 05:10:31;;;;;;;3.33;3.13;;;;;;;;;;4937063;29;20040;-67
2022/04/05 05:12:57;;;;;;;3.53;3.30;;;;;;;;;;4935075;29;20036;-65
2022/04/05 05:15:22;;;;;;;3.70;3.42;;;;;;;;;;4936484;29;20026;-66
2022/04/05 05:17:48;;;;;;;4.22;3.88;;;;;;;;;;4936205;29;20032;-66
2022/04/05 05:20:14;;;;;;;3.65;3.33;;;;;;;;;;4936279;29;20024;-67
2022/04/05 05:22:40;;;;;;;4.07;3.78;;;;;;;;;;4936166;29;20027;-67
2022/04/05 05:25:06;;;;;;;4.47;4.18;;;;;;;;;;4934493;29;20396;-67
2022/04/05 05:27:31;;;;;;;2.97;2.78;;;;;;;;;;4935744;29;20035;-65
2022/04/05 05:29:57;;;;;;;4.70;4.40;;;;;;;;;;4936039;29;20036;-65
2022/04/05 05:32:22;;;;;;;3.72;2.80;;;;;;;;;;4936145;29;20396;-66
2022/04/05 05:34:48;;;;;;;5.30;4.80;;;;;;;;;;4936238;29;20428;-66
2022/04/05 05:37:14;;;;;;;5.30;4.70;;;;;;;;;;4935893;29;20130;-74
2022/04/05 05:39:41;;;;;;;4.28;3.92;;;;;;;;;;4934798;29;20024;-72
2022/04/05 05:42:07;;;;;;;4.18;3.72;;;;;;;;;;4935917;29;20032;-73
2022/04/05 05:44:33;;;;;;;5.00;4.28;;;;;;;;;;4936076;29;20495;-72
2022/04/05 05:46:58;;;;;;;4.38;3.97;;;;;;;;;;4935990;29;20035;-75
2022/04/05 05:49:24;;;;;;;4.28;3.97;;;;;;;;;;4935964;29;20031;-74
2022/04/05 05:51:50;;;;;;;0.98;0.98;;;;;;;;;;4935871;29;20484;-74
2022/04/05 05:54:16;;;;;;;4.18;3.78;;;;;;;;;;4934662;29;20081;-73
2022/04/05 05:56:42;;;;;;;2.65;2.45;;;;;;;;;;4934555;29;20046;-73
2022/04/05 05:59:07;;;;;;;1.65;1.55;;;;;;;;;;4935889;29;20019;-74
2022/04/05 06:01:32;;;;;;;3.10;2.88;;;;;;;;;;4935630;29;20039;-74
2022/04/05 06:03:58;;;;;;;3.75;3.42;;;;;;;;;;4935760;29;20051;-74
2022/04/05 06:06:23;;;;;;;4.60;4.18;;;;;;;;;;4935821;29;20049;-74
2022/04/05 06:08:49;;;;;;;3.63;2.85;;;;;;;;;;4935804;29;20106;-74
2022/04/05 06:11:14;;;;;;;0.73;0.73;;;;;;;;;;4934384;29;20042;-73
2022/04/05 06:13:40;;;;;;;3.45;3.25;;;;;;;;;;4935746;29;20131;-76
2022/04/05 06:16:08;;;;;;;3.65;3.42;;;;;;;;;;4935862;29;20455;-76
2022/04/05 06:18:37;;;;;;;4.13;3.72;;;;;;;;;;4921392;29;20024;-76
2022/04/05 06:21:02;;;;;;;2.97;2.78;;;;;;;;;;4939673;29;20051;-76
2022/04/05 06:23:28;;;;;;;3.63;3.35;;;;;;;;;;4939392;29;20058;-76
2022/04/05 06:25:53;;;;;;;3.25;3.05;;;;;;;;;;4951865;29;20043;-73
2022/04/05 06:28:19;;;;;;;3.25;3.00;;;;;;;;;;4925503;29;20087;-74
2022/04/05 06:30:46;;;;;;;1.75;1.65;;;;;;;;;;4958167;28;20047;-75
2022/04/05 06:33:23;;;;;;;3.60;3.30;;;;;;;;;;4941237;29;20019;-78
2022/04/05 06:35:50;;;;;;;3.90;3.60;;;;;;;;;;4941386;29;20046;-66
2022/04/05 06:38:15;;;;;;;2.78;2.58;;;;;;;;;;4958253;29;20027;-76
2022/04/05 06:40:42;;;;;;;3.35;3.05;;;;;;;;;;4958223;29;20070;-77
2022/04/05 06:43:07;;;;;;;1.85;1.73;;;;;;;;;;4925077;29;20409;-76
2022/04/05 06:45:33;;;;;;;3.13;2.45;;;;;;;;;;4941071;29;20058;-69
2022/04/05 06:47:59;;;;;;;3.42;3.20;;;;;;;;;;4958232;29;20019;-69
2022/04/05 06:50:25;;;;;;;3.65;3.40;;;;;;;;;;4958215;29;20550;-68
2022/04/05 06:52:55;;;;;;;3.15;2.90;;;;;;;;;;4958122;29;20110;-68
2022/04/05 06:55:20;;;;;;;3.03;2.83;;;;;;;;;;4958139;29;20383;-68
2022/04/05 06:57:46;;;;;;;1.58;1.48;;;;;;;;;;4957928;29;20019;-69
2022/04/05 07:00:12;;;;;;;3.70;3.40;;;;;;;;;;4940807;29;20031;-68
2022/04/05 07:02:38;;;;;;;3.97;3.60;;;;;;;;;;4958023;29;20522;-68
2022/04/05 07:05:04;;;;;;;2.83;2.63;;;;;;;;;;4957896;29;20086;-69
2022/04/05 07:07:29;;;;;;;3.30;3.03;;;;;;;;;;4957874;29;20469;-69
2022/04/05 07:09:55;;;;;;;4.38;4.07;;;;;;;;;;4957900;29;20390;-68
2022/04/05 07:12:20;;;;;;;3.42;3.17;;;;;;;;;;4940617;29;20037;-68
2022/04/05 07:14:46;;;;;;;2.88;2.67;;;;;;;;;;4957769;29;20027;-68
2022/04/05 07:17:14;;;;;;;3.03;2.72;;;;;;;;;;4940429;29;20435;-68
2022/04/05 07:19:40;;;;;;;3.63;3.33;;;;;;;;;;4940628;29;20032;-68
2022/04/05 07:22:05;;;;;;;3.05;2.85;;;;;;;;;;4940493;29;20019;-69
2022/04/05 07:24:31;;;;;;;2.53;2.33;;;;;;;;;;4956983;29;20039;-69
2022/04/05 07:26:56;;;;;;;2.95;2.75;;;;;;;;;;4940468;29;20116;-68
2022/04/05 07:29:22;;;;;;;3.30;3.03;;;;;;;;;;4939115;29;20460;-68
2022/04/05 07:31:47;;;;;;;3.88;3.50;;;;;;;;;;4957470;29;20027;-68
2022/04/05 07:34:13;;;;;;;3.05;2.85;;;;;;;;;;4957355;29;20086;-68
2022/04/05 07:36:38;;;;;;;3.08;2.83;;;;;;;;;;4957307;29;20074;-68
2022/04/05 07:39:04;;;;;;;2.75;2.55;;;;;;;;;;4940150;29;20388;-68
2022/04/05 07:41:29;;;;;;;2.45;2.30;;;;;;;;;;4940002;29;20110;-70
2022/04/05 07:43:55;;;;;;;2.58;2.38;;;;;;;;;;4957154;29;20019;-68
2022/04/05 07:46:20;;;;;;;1.92;1.83;;;;;;;;;;4939939;29;20018;-70
2022/04/05 07:48:49;;;;;;;3.35;3.05;;;;;;;;;;4957003;29;20403;-69
2022/04/05 07:51:15;;;;;;;2.88;2.67;;;;;;;;;;4957040;29;20027;-69
2022/04/05 07:53:40;;;;;;;2.30;2.05;;;;;;;;;;4957154;29;20443;-72
2022/04/05 07:56:06;;;;;;;3.25;2.97;;;;;;;;;;4957047;29;20038;-72
2022/04/05 07:58:31;;;;;;;2.92;2.72;;;;;;;;;;4956887;29;20061;-70
2022/04/05 08:00:57;;;;;;;3.05;2.85;;;;;;;;;;4956931;29;20464;-70
2022/04/05 08:03:22;;;;;;;3.25;3.03;;;;;;;;;;4956779;29;20364;-70
2022/04/05 08:05:48;;;;;;;3.20;2.92;;;;;;;;;;4956785;29;20015;-71
2022/04/05 08:08:14;;;;;;;1.58;1.48;;;;;;;;;;4956641;29;20043;-69
2022/04/05 08:10:40;;;;;;;2.53;2.33;;;;;;;;;;4939340;29;20127;-69
2022/04/05 08:13:06;;;;;;;2.85;2.67;;;;;;;;;;4956648;29;20023;-69
2022/04/05 08:15:31;;;;;;;3.00;2.80;;;;;;;;;;4939339;29;20067;-69
2022/04/05 08:17:57;;;;;;;3.38;3.08;;;;;;;;;;4938988;29;20042;-69
2022/04/05 08:20:23;;;;;;;2.38;2.17;;;;;;;;;;4939328;29;20019;-69
2022/04/05 08:22:48;;;;;;;3.53;3.28;;;;;;;;;;4956618;29;20541;-69
2022/04/05 08:25:15;;;;;;;2.67;2.47;;;;;;;;;;4938825;29;20131;-69
2022/04/05 08:27:41;;;;;;;3.15;2.85;;;;;;;;;;4956467;29;20023;-69
2022/04/05 08:30:08;;;;;;;3.15;2.90;;;;;;;;;;4956410;29;20023;-69
2022/04/05 08:32:36;;;;;;;4.07;3.50;;;;;;;;;;4956308;29;20027;-69
2022/04/05 08:35:03;;;;;;;2.75;1.98;;;;;;;;;;4956221;29;20442;-70
2022/04/05 08:37:28;;;;;;;3.03;2.83;;;;;;;;;;4938898;29;20047;-70
2022/04/05 08:39:53;;;;;;;3.22;2.92;;;;;;;;;;4955752;28;20027;-70
2022/04/05 08:42:20;;;;;;;2.33;2.22;;;;;;;;;;4956111;29;20023;-69
2022/04/05 08:44:45;;;;;;;2.88;2.67;;;;;;;;;;4938971;29;20531;-69
2022/04/05 08:47:12;;;;;;;2.92;2.70;;;;;;;;;;4956033;29;20089;-70
2022/04/05 08:49:38;;;;;;;2.17;2.03;;;;;;;;;;4956024;29;20031;-69
2022/04/05 08:52:05;;;;;;;0.60;0.60;;;;;;;;;;4955910;29;20360;-69
2022/04/05 08:54:31;;;;;;;2.63;2.42;;;;;;;;;;4938570;29;20035;-69
2022/04/05 08:56:56;;;;;;;3.20;3.00;;;;;;;;;;4955855;29;20038;-70
2022/04/05 08:59:22;;;;;;;3.00;2.70;;;;;;;;;;4955949;29;20015;-69
2022/04/05 09:01:49;;;;;;;2.45;2.22;;;;;;;;;;4955856;29;20058;-69
2022/04/05 09:04:14;;;;;;;3.00;2.70;;;;;;;;;;4955712;29;20015;-71
2022/04/05 09:06:40;;;;;;;3.47;3.00;;;;;;;;;;4955582;29;20509;-69
2022/04/05 09:09:07;;;;;;;2.13;2.00;;;;;;;;;;4955633;29;20055;-69
2022/04/05 09:11:32;;;;;;;4.07;2.97;;;;;;;;;;4955531;29;20035;-69
2022/04/05 09:13:59;;;;;;;2.50;2.28;;;;;;;;;;4955488;29;20074;-69
2022/04/05 09:16:31;;;;;;;2.42;2.25;;;;;;;;;;4955568;29;20049;-69
2022/04/05 09:18:56;;;;;;;2.75;2.45;;;;;;;;;;4955649;29;20509;-69
2022/04/05 09:21:22;;;;;;;2.42;2.10;;;;;;;;;;4955520;29;20024;-69
2022/04/05 09:23:52;;;;;;;1.98;1.85;;;;;;;;;;4938139;29;20126;-69
2022/04/05 09:26:18;;;;;;;2.40;2.20;;;;;;;;;;4955183;29;20125;-69
2022/04/05 09:28:47;;;;;;;3.53;2.85;;;;;;;;;;4955229;29;20059;-69
2022/04/05 09:31:20;;;;;;;2.50;2.30;;;;;;;;;;4938090;29;20041;-69
2022/04/05 09:34:05;;;;;;;3.15;2.85;;;;;;;;;;4955320;29;20439;-69
2022/04/05 09:36:35;;;;;;;2.67;2.42;;;;;;;;;;4938186;29;20087;-69
2022/04/05 09:39:15;;;;;;;2.92;2.72;;;;;;;;;;4937942;29;20117;-69
2022/04/05 09:41:41;;;;;;;;;;;;;;;;;;4955684;29;20027;-69
2022/04/05 09:44:06;;;;;;;2.05;1.95;;;;;;;;;;4938055;29;20248;-69
2022/04/05 09:46:33;;;;;;;3.70;2.88;;;;;;;;;;4938065;29;20038;-69
2022/04/05 09:49:01;;;;;;;2.95;2.72;;;;;;;;;;4954955;29;20539;-69
2022/04/05 09:51:27;;;;;;;2.28;1.30;;;;;;;;;;4937453;29;20114;-69
2022/04/05 09:53:55;;;;;;;0.88;0.88;;;;;;;;;;4954688;29;20568;-69
2022/04/05 09:56:30;;;;;;;2.85;2.65;;;;;;;;;;4955009;29;20038;-68
2022/04/05 09:59:03;;;;;;;1.48;1.38;;;;;;;;;;4954921;29;20031;-66
2022/04/05 10:01:33;;;;;;;2.58;2.38;;;;;;;;;;4937867;29;20174;-68
2022/04/05 10:04:06;;;;;;;1.50;1.40;;;;;;;;;;4954953;29;20028;-69
2022/04/05 10:06:33;;;;;;;2.45;2.22;;;;;;;;;;4954910;29;20028;-68
2022/04/05 10:08:59;;;;;;;1.52;1.42;;;;;;;;;;4954652;29;20391;-69
2022/04/05 10:11:25;;;;;;;2.33;2.17;;;;;;;;;;4937851;29;20050;-69
2022/04/05 10:13:51;;;;;;;2.45;2.30;;;;;;;;;;4937808;29;20083;-67
2022/04/05 10:16:18;;;;;;;2.75;2.05;;;;;;;;;;4937803;29;20031;-69
2022/04/05 10:18:46;;;;;;;3.20;2.38;;;;;;;;;;4937602;29;20106;-69
2022/04/05 10:21:11;;;;;;;2.75;2.53;;;;;;;;;;4954800;29;20031;-69
2022/04/05 10:23:38;;;;;;;2.22;2.03;;;;;;;;;;4937679;29;20494;-69
2022/04/05 10:26:04;;;;;;;0.90;0.88;;;;;;;;;;4954408;29;20035;-69
2022/04/05 10:28:32;;;;;;;3.47;2.65;;;;;;;;;;4954738;29;20034;-69
2022/04/05 10:31:10;;;;;;;2.38;2.17;;;;;;;;;;4954675;29;20074;-67
2022/04/05 10:33:54;;;;;;;2.83;2.63;;;;;;;;;;4954896;29;20094;-69
2022/04/05 10:36:24;;;;;;;2.58;2.38;;;;;;;;;;4954753;29;20031;-69
2022/04/05 10:39:08;;;;;;;2.28;2.17;;;;;;;;;;4954622;29;20028;-67
2022/04/05 10:41:33;;;;;;;1.85;1.75;;;;;;;;;;4954670;29;20091;-69
2022/04/05 10:44:18;;;;;;;3.75;2.83;;;;;;;;;;4937434;29;20015;-69
2022/04/05 10:46:58;;;;;;;2.10;1.95;;;;;;;;;;4937334;29;20079;-69
2022/04/05 10:49:42;;;;;;;1.48;1.38;;;;;;;;;;4954506;29;20027;-70
2022/04/05 10:52:12;;;;;;;1.85;1.75;;;;;;;;;;4954569;29;20059;-68
2022/04/05 10:54:42;;;;;;;2.08;1.98;;;;;;;;;;4954436;29;20026;-69
2022/04/05 10:57:27;;;;;;;2.20;2.10;;;;;;;;;;4954497;29;20422;-69
2022/04/05 10:59:57;;;;;;;2.58;2.38;;;;;;;;;;4954516;29;20368;-69
2022/04/05 11:02:27;;;;;;;2.63;2.42;;;;;;;;;;4954332;29;20389;-69
2022/04/05 11:04:59;;;;;;;2.80;2.50;;;;;;;;;;4957404;28;20067;-69
2022/04/05 11:07:24;;;;;;;2.67;2.38;;;;;;;;;;4940648;29;20034;-69
2022/04/05 11:09:53;;;;;;;2.55;2.33;;;;;;;;;;4957741;29;20027;-69
2022/04/05 11:12:19;;;;;;;3.92;3.08;;;;;;;;;;4940602;29;20035;-69
2022/04/05 11:14:47;;;;;;;2.92;2.63;;;;;;;;;;4957732;29;20500;-69
2022/04/05 11:17:17;;;;;;;3.70;3.40;;;;;;;;;;4937462;29;20031;-69
2022/04/05 11:19:43;;;;;;;2.60;2.38;;;;;;;;;;4957572;29;20035;-69
2022/04/05 11:22:20;;;;;;;2.83;2.63;;;;;;;;;;4957617;29;20049;-69
2022/04/05 11:25:00;;;;;;;3.42;3.13;;;;;;;;;;4957151;29;20098;-69
2022/04/05 11:27:32;;;;;;;2.67;2.45;;;;;;;;;;4940807;29;20031;-69
2022/04/05 11:30:16;;;;;;;4.57;3.65;;;;;;;;;;4940406;29;20090;-69
2022/04/05 11:33:02;;;;;;;2.33;2.13;;;;;;;;;;4940250;29;20043;-69
2022/04/05 11:35:27;;;;;;;3.60;3.17;;;;;;;;;;4901537;29;20039;-69
2022/04/05 11:37:52;;;;;;;3.70;3.30;;;;;;;;;;4957195;29;20039;-69
2022/04/05 11:40:18;;;;;;;3.30;2.85;;;;;;;;;;4957152;29;20042;-69
2022/04/05 11:42:43;;;;;;;2.70;2.50;;;;;;;;;;4957396;29;20106;-69
2022/04/05 11:45:09;;;;;;;2.83;2.63;;;;;;;;;;4957191;29;20546;-69
2022/04/05 11:47:35;;;;;;;2.80;2.40;;;;;;;;;;4957242;29;20114;-69
2022/04/05 11:50:06;;;;;;;2.83;2.50;;;;;;;;;;4957210;29;20086;-69
2022/04/05 11:52:32;;;;;;;2.80;2.55;;;;;;;;;;4939777;29;20042;-69
2022/04/05 11:57:44;;;;;;;3.35;2.90;;;;;;;;;;4957085;29;20040;-69
2022/04/05 12:00:10;;;;;;;4.30;2.97;;;;;;;;;;4957045;29;20057;-69
2022/04/05 12:02:36;;;;;;;5.32;3.10;;;;;;;;;;4939840;29;20443;-69
2022/04/05 12:05:01;;;;;;;2.88;2.63;;;;;;;;;;4956939;29;20011;-69
2022/04/05 12:07:31;;;;;;;4.97;3.08;;;;;;;;;;4939645;29;20399;-69
2022/04/05 12:09:56;;;;;;;3.72;3.42;;;;;;;;;;4956638;29;20078;-69
2022/04/05 12:12:24;;;;;;;3.88;3.05;;;;;;;;;;4939443;29;20427;-69
2022/04/05 12:14:49;;;;;;;2.13;1.45;;;;;;;;;;4956069;28;20480;-69
2022/04/05 12:17:15;;;;;;;2.28;1.42;;;;;;;;;;4956448;29;20042;-69
2022/04/05 12:19:42;;;;;;;3.60;3.17;;;;;;;;;;4956633;29;20163;-71
2022/04/05 12:22:07;;;;;;;3.72;2.92;;;;;;;;;;4956548;29;20527;-71
2022/04/05 12:24:34;;;;;;;2.15;1.85;;;;;;;;;;4939114;29;20114;-71
2022/04/05 12:27:00;;;;;;;3.40;3.00;;;;;;;;;;4956635;29;20090;-71
2022/04/05 12:29:27;;;;;;;3.05;2.42;;;;;;;;;;4939290;29;20037;-71
2022/04/05 12:31:53;;;;;;;3.92;2.10;;;;;;;;;;4956275;29;20113;-71
2022/04/05 12:34:19;;;;;;;4.05;3.42;;;;;;;;;;4956190;29;20046;-71
2022/04/05 12:36:46;;;;;;;2.80;2.47;;;;;;;;;;4939019;29;20037;-71
2022/04/05 12:39:20;;;;;;;4.60;3.38;;;;;;;;;;4939111;29;20031;-71
2022/04/05 12:41:49;;;;;;;3.08;2.25;;;;;;;;;;4956220;29;20035;-71
2022/04/05 12:44:16;;;;;;;3.42;2.70;;;;;;;;;;4956152;29;20047;-71
2022/04/05 12:46:43;;;;;;;3.47;2.03;;;;;;;;;;4938947;29;20074;-71
2022/04/05 12:49:26;;;;;;;3.65;2.67;;;;;;;;;;4956055;29;20027;-71
2022/04/05 12:51:52;;;;;;;4.68;3.58;;;;;;;;;;4955905;29;20031;-71
2022/04/05 12:54:28;;;;;;;4.22;3.00;;;;;;;;;;4955854;29;20086;-71
2022/04/05 12:56:53;;;;;;;4.53;3.03;;;;;;;;;;4938558;29;20027;-71
2022/04/05 12:59:25;;;;;;;3.80;3.40;;;;;;;;;;4955921;29;20019;-71
2022/04/05 13:01:55;;;;;;;5.97;3.72;;;;;;;;;;4955862;29;20023;-71
2022/04/05 13:04:21;;;;;;;5.90;3.65;;;;;;;;;;4955712;29;20117;-71
2022/04/05 13:06:51;;;;;;;5.22;4.13;;;;;;;;;;4938688;29;20016;-71
2022/04/05 13:09:18;;;;;;;4.45;3.95;;;;;;;;;;4938695;29;20402;-71
2022/04/05 13:11:43;;;;;;;4.47;3.20;;;;;;;;;;4938686;29;20467;-71
2022/04/05 13:14:14;;;;;;;3.42;3.13;;;;;;;;;;4938494;29;20035;-71
2022/04/05 13:16:41;;;;;;;4.72;3.67;;;;;;;;;;4938736;29;20471;-71
2022/04/05 13:19:08;;;;;;;4.38;1.27;;;;;;;;;;4955599;29;20085;-71
2022/04/05 13:21:41;;;;;;;3.88;2.35;;;;;;;;;;4938464;29;20134;-71
2022/04/05 13:24:09;;;;;;;1.75;1.20;;;;;;;;;;4955439;29;20451;-71
2022/04/05 13:26:38;;;;;;;3.22;2.83;;;;;;;;;;4955133;28;20201;-70
2022/04/05 13:29:08;;;;;;;3.55;3.25;;;;;;;;;;4955299;29;20042;-70
2022/04/05 13:31:38;;;;;;;5.93;3.95;;;;;;;;;;4938303;29;20422;-67
2022/04/05 13:34:04;;;;;;;5.68;3.97;;;;;;;;;;4955304;29;20047;-68
2022/04/05 13:36:29;;;;;;;5.72;4.50;;;;;;;;;;4938015;29;20019;-68
2022/04/05 13:38:55;;;;;;;5.25;4.68;;;;;;;;;;4955106;29;20067;-69
2022/04/05 13:41:20;;;;;;;5.47;4.03;;;;;;;;;;4954859;29;20019;-68
2022/04/05 13:54:06;;;;;;;11.55;6.88;;;;;;;;;;5005189;23;20739;-69
2022/04/05 13:56:32;;;;;;;10.90;7.45;;;;;;;;;;4937705;29;20053;-70
2022/04/05 13:58:58;;;;;;;18.48;8.80;;;;;;;;;;4953406;29;20447;-69
2022/04/05 14:01:24;;;;;;;11.07;7.20;;;;;;;;;;4954871;29;20042;-70
2022/04/05 14:03:49;;;;;;;13.75;7.45;;;;;;;;;;4955352;29;20023;-72
2022/04/05 14:06:18;;;;;;;8.60;6.22;;;;;;;;;;4952945;29;20042;-70
2022/04/05 14:08:43;;;;;;;9.63;6.85;;;;;;;;;;4948459;29;20431;-70
2022/04/05 14:11:09;;;;;;;6.35;5.50;;;;;;;;;;4953588;29;20028;-70
2022/04/05 14:13:34;;;;;;;7.25;6.55;;;;;;;;;;4953408;29;20503;-70
2022/04/05 14:16:00;;;;;;;7.75;6.32;;;;;;;;;;4936307;29;20027;-70
2022/04/05 14:18:25;;;;;;;7.32;5.70;;;;;;;;;;4952831;29;20059;-69
2022/04/05 14:20:51;;;;;;;7.80;6.57;;;;;;;;;;4950125;28;20035;-70
2022/04/05 14:23:16;;;;;;;7.05;6.10;;;;;;;;;;4935708;29;20070;-69
2022/04/05 14:25:42;;;;;;;7.57;5.78;;;;;;;;;;4954777;29;20027;-70
2022/04/05 14:28:08;;;;;;;7.95;5.90;;;;;;;;;;4955254;29;20098;-70
2022/04/05 14:30:33;;;;;;;7.85;5.95;;;;;;;;;;4955146;29;20039;-74
2022/04/05 14:32:59;;;;;;;8.13;6.13;;;;;;;;;;4955127;29;20019;-73
2022/04/05 14:35:25;;;;;;;7.68;6.43;;;;;;;;;;4937825;29;20027;-73
2022/04/05 14:37:50;;;;;;;5.90;5.30;;;;;;;;;;4937947;29;20023;-73
2022/04/05 14:40:16;;;;;;;8.43;6.80;;;;;;;;;;4958473;29;20086;-74
2022/04/05 14:42:41;;;;;;;8.13;6.03;;;;;;;;;;4958362;29;20027;-73
2022/04/05 14:45:08;;;;;;;6.38;5.78;;;;;;;;;;4956803;29;20097;-73
2022/04/05 14:47:33;;;;;;;9.65;8.13;;;;;;;;;;4958695;29;20024;-73
2022/04/05 14:49:58;;;;;;;10.32;7.40;;;;;;;;;;4958494;29;20038;-73
2022/04/05 14:52:24;;;;;;;10.48;8.10;;;;;;;;;;4941286;29;20117;-73
2022/04/05 14:54:49;;;;;;;6.70;5.60;;;;;;;;;;4958338;29;20078;-72
2022/04/05 14:57:16;;;;;;;4.57;4.10;;;;;;;;;;4941289;29;20042;-73
2022/04/05 14:59:42;;;;;;;4.95;4.10;;;;;;;;;;4941272;29;20027;-72
2022/04/05 15:02:07;;;;;;;5.07;3.90;;;;;;;;;;4941285;29;20019;-62
2022/04/05 15:04:35;;;;;;;4.53;3.55;;;;;;;;;;4958328;29;20031;-64
2022/04/05 15:07:01;;;;;;;3.08;2.80;;;;;;;;;;4958242;29;20066;-64
2022/04/05 15:09:26;;;;;;;4.35;3.13;;;;;;;;;;4941088;29;20123;-71
2022/04/05 15:11:53;;;;;;;3.00;2.70;;;;;;;;;;4958282;29;20054;-72
2022/04/05 15:14:19;;;;;;;3.70;3.15;;;;;;;;;;4957782;29;20114;-72
2022/04/05 15:16:45;;;;;;;3.58;2.50;;;;;;;;;;4956649;29;20106;-72
2022/04/05 15:19:10;;;;;;;3.97;3.63;;;;;;;;;;4956960;29;20122;-72
2022/04/05 15:21:36;;;;;;;4.13;3.28;;;;;;;;;;4939969;29;20015;-63